sensor_id;sensor_type;location;lat;lon;timestamp;P1;durP1;ratioP1;P2;durP2;ratioP2
71042;SDS011;58696;52.134;5.500;2024-02-14T00:01:41;5.50;;;2.10;;
71042;SDS011;58696;52.134;5.500;2024-02-14T00:04:07;2.58;;;2.20;;
71042;SDS011;58696;52.134;5.500;2024-02-14T00:06:40;2.20;;;2.00;;
71042;SDS011;58696;52.134;5.500;2024-02-14T00:09:12;2.72;;;2.10;;
71042;SDS011;58696;52.134;5.500;2024-02-14T00:11:41;2.88;;;2.05;;
71042;SDS011;58696;52.134;5.500;2024-02-14T00:14:10;1.80;;;1.70;;
71042;SDS011;58696;52.134;5.500;2024-02-14T00:16:39;2.30;;;1.88;;
71042;SDS011;58696;52.134;5.500;2024-02-14T00:19:05;2.50;;;2.00;;
71042;SDS011;58696;52.134;5.500;2024-02-14T00:21:37;2.53;;;1.75;;
71042;SDS011;58696;52.134;5.500;2024-02-14T00:24:05;1.90;;;1.80;;
71042;SDS011;58696;52.134;5.500;2024-02-14T00:26:32;2.55;;;1.85;;
71042;SDS011;58696;52.134;5.500;2024-02-14T00:29:01;3.83;;;2.42;;
71042;SDS011;58696;52.134;5.500;2024-02-14T00:31:30;2.25;;;2.05;;
71042;SDS011;58696;52.134;5.500;2024-02-14T00:33:56;2.25;;;2.03;;
71042;SDS011;58696;52.134;5.500;2024-02-14T00:36:25;2.13;;;1.92;;
71042;SDS011;58696;52.134;5.500;2024-02-14T00:38:52;2.22;;;2.05;;
71042;SDS011;58696;52.134;5.500;2024-02-14T00:41:21;1.48;;;1.38;;
71042;SDS011;58696;52.134;5.500;2024-02-14T00:43:52;2.70;;;2.25;;
71042;SDS011;58696;52.134;5.500;2024-02-14T00:46:19;3.65;;;2.28;;
71042;SDS011;58696;52.134;5.500;2024-02-14T00:48:45;2.35;;;2.15;;
71042;SDS011;58696;52.134;5.500;2024-02-14T00:51:14;2.95;;;2.28;;
71042;SDS011;58696;52.134;5.500;2024-02-14T00:53:43;2.33;;;2.13;;
71042;SDS011;58696;52.134;5.500;2024-02-14T00:56:10;2.08;;;1.88;;
71042;SDS011;58696;52.134;5.500;2024-02-14T00:58:39;2.45;;;2.25;;
71042;SDS011;58696;52.134;5.500;2024-02-14T01:01:05;2.95;;;2.53;;
71042;SDS011;58696;52.134;5.500;2024-02-14T01:03:35;2.58;;;1.92;;
71042;SDS011;58696;52.134;5.500;2024-02-14T01:06:01;5.82;;;3.22;;
71042;SDS011;58696;52.134;5.500;2024-02-14T01:08:28;2.97;;;2.53;;
71042;SDS011;58696;52.134;5.500;2024-02-14T01:10:55;5.50;;;3.13;;
71042;SDS011;58696;52.134;5.500;2024-02-14T01:13:21;2.78;;;2.58;;
71042;SDS011;58696;52.134;5.500;2024-02-14T01:15:51;4.97;;;2.95;;
71042;SDS011;58696;52.134;5.500;2024-02-14T01:18:17;3.25;;;2.95;;
71042;SDS011;58696;52.134;5.500;2024-02-14T01:20:49;4.35;;;3.20;;
71042;SDS011;58696;52.134;5.500;2024-02-14T01:23:16;3.00;;;2.53;;
71042;SDS011;58696;52.134;5.500;2024-02-14T01:25:45;7.30;;;4.18;;
71042;SDS011;58696;52.134;5.500;2024-02-14T01:28:12;5.28;;;3.75;;
71042;SDS011;58696;52.134;5.500;2024-02-14T01:30:41;4.10;;;3.20;;
71042;SDS011;58696;52.134;5.500;2024-02-14T01:33:07;4.75;;;3.47;;
71042;SDS011;58696;52.134;5.500;2024-02-14T01:35:36;3.15;;;2.58;;
71042;SDS011;58696;52.134;5.500;2024-02-14T01:38:03;3.53;;;3.13;;
71042;SDS011;58696;52.134;5.500;2024-02-14T01:40:33;3.45;;;3.05;;
71042;SDS011;58696;52.134;5.500;2024-02-14T01:43:02;7.53;;;3.28;;
71042;SDS011;58696;52.134;5.500;2024-02-14T01:45:28;4.65;;;3.25;;
71042;SDS011;58696;52.134;5.500;2024-02-14T01:47:55;5.90;;;3.25;;
71042;SDS011;58696;52.134;5.500;2024-02-14T01:50:22;4.90;;;3.05;;
71042;SDS011;58696;52.134;5.500;2024-02-14T01:52:56;7.00;;;3.53;;
71042;SDS011;58696;52.134;5.500;2024-02-14T01:55:28;7.70;;;3.53;;
71042;SDS011;58696;52.134;5.500;2024-02-14T01:57:55;3.95;;;3.55;;
71042;SDS011;58696;52.134;5.500;2024-02-14T02:00:21;4.18;;;3.72;;
71042;SDS011;58696;52.134;5.500;2024-02-14T02:02:50;3.40;;;2.92;;
71042;SDS011;58696;52.134;5.500;2024-02-14T02:05:22;4.88;;;3.33;;
71042;SDS011;58696;52.134;5.500;2024-02-14T02:07:48;6.95;;;3.20;;
71042;SDS011;58696;52.134;5.500;2024-02-14T02:10:18;5.00;;;3.77;;
71042;SDS011;58696;52.134;5.500;2024-02-14T02:12:47;2.83;;;2.42;;
71042;SDS011;58696;52.134;5.500;2024-02-14T02:15:17;3.50;;;3.20;;
71042;SDS011;58696;52.134;5.500;2024-02-14T02:17:45;6.15;;;3.67;;
71042;SDS011;58696;52.134;5.500;2024-02-14T02:20:18;4.82;;;3.10;;
71042;SDS011;58696;52.134;5.500;2024-02-14T02:22:46;4.70;;;4.10;;
71042;SDS011;58696;52.134;5.500;2024-02-14T02:27:40;5.53;;;3.40;;
71042;SDS011;58696;52.134;5.500;2024-02-14T02:30:07;5.75;;;3.28;;
71042;SDS011;58696;52.134;5.500;2024-02-14T02:32:37;3.83;;;3.45;;
71042;SDS011;58696;52.134;5.500;2024-02-14T02:35:06;3.92;;;3.53;;
71042;SDS011;58696;52.134;5.500;2024-02-14T02:37:35;4.20;;;3.45;;
71042;SDS011;58696;52.134;5.500;2024-02-14T02:40:02;3.80;;;3.33;;
71042;SDS011;58696;52.134;5.500;2024-02-14T02:42:29;3.92;;;3.60;;
71042;SDS011;58696;52.134;5.500;2024-02-14T02:44:55;5.82;;;3.55;;
71042;SDS011;58696;52.134;5.500;2024-02-14T02:47:24;3.47;;;3.17;;
71042;SDS011;58696;52.134;5.500;2024-02-14T02:49:51;4.25;;;3.40;;
71042;SDS011;58696;52.134;5.500;2024-02-14T02:52:19;5.15;;;3.88;;
71042;SDS011;58696;52.134;5.500;2024-02-14T02:54:45;3.92;;;3.35;;
71042;SDS011;58696;52.134;5.500;2024-02-14T02:57:13;4.15;;;3.75;;
71042;SDS011;58696;52.134;5.500;2024-02-14T02:59:42;5.28;;;4.22;;
71042;SDS011;58696;52.134;5.500;2024-02-14T03:02:11;4.75;;;4.00;;
71042;SDS011;58696;52.134;5.500;2024-02-14T03:04:38;4.22;;;3.90;;
71042;SDS011;58696;52.134;5.500;2024-02-14T03:07:17;4.72;;;4.07;;
71042;SDS011;58696;52.134;5.500;2024-02-14T03:09:45;3.70;;;3.40;;
71042;SDS011;58696;52.134;5.500;2024-02-14T03:12:11;5.13;;;3.88;;
71042;SDS011;58696;52.134;5.500;2024-02-14T03:14:42;3.70;;;3.40;;
71042;SDS011;58696;52.134;5.500;2024-02-14T03:17:10;5.07;;;4.10;;
71042;SDS011;58696;52.134;5.500;2024-02-14T03:19:39;3.45;;;3.15;;
71042;SDS011;58696;52.134;5.500;2024-02-14T03:22:09;6.60;;;4.00;;
71042;SDS011;58696;52.134;5.500;2024-02-14T03:24:40;3.90;;;3.60;;
71042;SDS011;58696;52.134;5.500;2024-02-14T03:27:10;3.80;;;3.33;;
71042;SDS011;58696;52.134;5.500;2024-02-14T03:29:43;5.05;;;3.45;;
71042;SDS011;58696;52.134;5.500;2024-02-14T03:32:10;4.50;;;4.10;;
71042;SDS011;58696;52.134;5.500;2024-02-14T03:34:37;6.07;;;4.45;;
71042;SDS011;58696;52.134;5.500;2024-02-14T03:37:03;3.83;;;3.47;;
71042;SDS011;58696;52.134;5.500;2024-02-14T03:39:33;4.70;;;3.97;;
71042;SDS011;58696;52.134;5.500;2024-02-14T03:42:00;6.57;;;5.18;;
71042;SDS011;58696;52.134;5.500;2024-02-14T03:44:33;7.72;;;4.25;;
71042;SDS011;58696;52.134;5.500;2024-02-14T03:47:05;5.10;;;4.63;;
71042;SDS011;58696;52.134;5.500;2024-02-14T03:49:32;8.77;;;5.20;;
71042;SDS011;58696;52.134;5.500;2024-02-14T03:52:01;6.85;;;3.95;;
71042;SDS011;58696;52.134;5.500;2024-02-14T03:54:30;10.25;;;5.88;;
71042;SDS011;58696;52.134;5.500;2024-02-14T03:56:58;7.32;;;5.03;;
71042;SDS011;58696;52.134;5.500;2024-02-14T03:59:25;4.88;;;3.90;;
71042;SDS011;58696;52.134;5.500;2024-02-14T04:01:52;5.95;;;5.18;;
71042;SDS011;58696;52.134;5.500;2024-02-14T04:04:19;6.03;;;5.43;;
71042;SDS011;58696;52.134;5.500;2024-02-14T04:06:49;6.43;;;4.47;;
71042;SDS011;58696;52.134;5.500;2024-02-14T04:09:18;8.15;;;5.28;;
71042;SDS011;58696;52.134;5.500;2024-02-14T04:11:49;13.48;;;5.65;;
71042;SDS011;58696;52.134;5.500;2024-02-14T04:14:21;11.05;;;5.78;;
71042;SDS011;58696;52.134;5.500;2024-02-14T04:16:49;13.45;;;5.65;;
71042;SDS011;58696;52.134;5.500;2024-02-14T04:19:19;8.25;;;5.18;;
71042;SDS011;58696;52.134;5.500;2024-02-14T04:21:46;5.57;;;4.22;;
71042;SDS011;58696;52.134;5.500;2024-02-14T04:24:15;12.18;;;5.75;;
71042;SDS011;58696;52.134;5.500;2024-02-14T04:26:43;11.77;;;5.03;;
71042;SDS011;58696;52.134;5.500;2024-02-14T04:29:12;13.15;;;6.07;;
71042;SDS011;58696;52.134;5.500;2024-02-14T04:31:39;12.20;;;6.50;;
71042;SDS011;58696;52.134;5.500;2024-02-14T04:34:05;8.85;;;5.25;;
71042;SDS011;58696;52.134;5.500;2024-02-14T04:36:34;10.73;;;4.63;;
71042;SDS011;58696;52.134;5.500;2024-02-14T04:39:01;14.82;;;5.60;;
71042;SDS011;58696;52.134;5.500;2024-02-14T04:41:29;13.18;;;6.63;;
71042;SDS011;58696;52.134;5.500;2024-02-14T04:44:01;10.52;;;6.15;;
71042;SDS011;58696;52.134;5.500;2024-02-14T04:46:27;8.43;;;5.80;;
71042;SDS011;58696;52.134;5.500;2024-02-14T04:48:54;5.28;;;4.28;;
71042;SDS011;58696;52.134;5.500;2024-02-14T04:51:23;7.22;;;4.72;;
71042;SDS011;58696;52.134;5.500;2024-02-14T04:53:52;11.85;;;6.20;;
71042;SDS011;58696;52.134;5.500;2024-02-14T04:56:25;11.18;;;5.93;;
71042;SDS011;58696;52.134;5.500;2024-02-14T04:58:57;15.23;;;7.15;;
71042;SDS011;58696;52.134;5.500;2024-02-14T05:01:28;10.30;;;6.22;;
71042;SDS011;58696;52.134;5.500;2024-02-14T05:03:54;11.75;;;6.03;;
71042;SDS011;58696;52.134;5.500;2024-02-14T05:06:26;12.60;;;5.38;;
71042;SDS011;58696;52.134;5.500;2024-02-14T05:08:53;16.77;;;6.50;;
71042;SDS011;58696;52.134;5.500;2024-02-14T05:11:20;11.80;;;5.75;;
71042;SDS011;58696;52.134;5.500;2024-02-14T05:13:48;13.38;;;6.18;;
71042;SDS011;58696;52.134;5.500;2024-02-14T05:16:20;12.07;;;6.38;;
71042;SDS011;58696;52.134;5.500;2024-02-14T05:18:47;11.95;;;6.35;;
71042;SDS011;58696;52.134;5.500;2024-02-14T05:23:48;8.35;;;6.60;;
71042;SDS011;58696;52.134;5.500;2024-02-14T05:28:47;9.48;;;6.55;;
71042;SDS011;58696;52.134;5.500;2024-02-14T05:31:14;6.88;;;5.13;;
71042;SDS011;58696;52.134;5.500;2024-02-14T05:33:43;11.57;;;7.33;;
71042;SDS011;58696;52.134;5.500;2024-02-14T05:36:13;10.65;;;5.88;;
71042;SDS011;58696;52.134;5.500;2024-02-14T05:38:41;10.27;;;5.57;;
71042;SDS011;58696;52.134;5.500;2024-02-14T05:41:08;5.70;;;4.50;;
71042;SDS011;58696;52.134;5.500;2024-02-14T05:43:37;8.75;;;5.72;;
71042;SDS011;58696;52.134;5.500;2024-02-14T05:46:04;13.55;;;6.22;;
71042;SDS011;58696;52.134;5.500;2024-02-14T05:48:35;8.52;;;6.18;;
71042;SDS011;58696;52.134;5.500;2024-02-14T05:51:08;7.75;;;6.18;;
71042;SDS011;58696;52.134;5.500;2024-02-14T05:53:39;7.18;;;6.18;;
71042;SDS011;58696;52.134;5.500;2024-02-14T05:56:06;7.88;;;5.53;;
71042;SDS011;58696;52.134;5.500;2024-02-14T05:58:35;11.85;;;6.07;;
71042;SDS011;58696;52.134;5.500;2024-02-14T06:01:02;7.20;;;4.68;;
71042;SDS011;58696;52.134;5.500;2024-02-14T06:03:28;9.80;;;5.20;;
71042;SDS011;58696;52.134;5.500;2024-02-14T06:06:00;7.43;;;5.63;;
71042;SDS011;58696;52.134;5.500;2024-02-14T06:08:34;6.70;;;5.10;;
71042;SDS011;58696;52.134;5.500;2024-02-14T06:11:03;5.55;;;4.68;;
71042;SDS011;58696;52.134;5.500;2024-02-14T06:13:33;5.93;;;5.15;;
71042;SDS011;58696;52.134;5.500;2024-02-14T06:16:03;4.93;;;4.50;;
71042;SDS011;58696;52.134;5.500;2024-02-14T06:18:32;5.82;;;5.07;;
71042;SDS011;58696;52.134;5.500;2024-02-14T06:20:59;5.07;;;4.57;;
71042;SDS011;58696;52.134;5.500;2024-02-14T06:23:28;6.65;;;4.90;;
71042;SDS011;58696;52.134;5.500;2024-02-14T06:25:57;4.50;;;3.63;;
71042;SDS011;58696;52.134;5.500;2024-02-14T06:28:24;6.45;;;4.63;;
71042;SDS011;58696;52.134;5.500;2024-02-14T06:30:51;4.45;;;3.58;;
71042;SDS011;58696;52.134;5.500;2024-02-14T06:33:17;5.38;;;4.47;;
71042;SDS011;58696;52.134;5.500;2024-02-14T06:35:44;4.65;;;4.05;;
71042;SDS011;58696;52.134;5.500;2024-02-14T06:38:13;4.97;;;4.50;;
71042;SDS011;58696;52.134;5.500;2024-02-14T06:40:40;5.03;;;4.10;;
71042;SDS011;58696;52.134;5.500;2024-02-14T06:43:06;6.93;;;4.18;;
71042;SDS011;58696;52.134;5.500;2024-02-14T06:45:36;3.67;;;3.38;;
71042;SDS011;58696;52.134;5.500;2024-02-14T06:48:05;4.03;;;3.72;;
71042;SDS011;58696;52.134;5.500;2024-02-14T06:50:34;6.22;;;4.13;;
71042;SDS011;58696;52.134;5.500;2024-02-14T06:53:03;4.20;;;3.85;;
71042;SDS011;58696;52.134;5.500;2024-02-14T06:55:30;4.45;;;4.05;;
71042;SDS011;58696;52.134;5.500;2024-02-14T06:57:59;4.93;;;4.18;;
71042;SDS011;58696;52.134;5.500;2024-02-14T07:00:31;7.05;;;4.22;;
71042;SDS011;58696;52.134;5.500;2024-02-14T07:03:00;6.53;;;5.28;;
71042;SDS011;58696;52.134;5.500;2024-02-14T07:05:27;5.43;;;4.93;;
71042;SDS011;58696;52.134;5.500;2024-02-14T07:07:56;6.75;;;5.70;;
71042;SDS011;58696;52.134;5.500;2024-02-14T07:10:22;6.38;;;4.28;;
71042;SDS011;58696;52.134;5.500;2024-02-14T07:12:49;6.80;;;6.13;;
71042;SDS011;58696;52.134;5.500;2024-02-14T07:15:18;9.07;;;6.50;;
71042;SDS011;58696;52.134;5.500;2024-02-14T07:17:46;7.75;;;6.90;;
71042;SDS011;58696;52.134;5.500;2024-02-14T07:20:12;8.43;;;6.82;;
71042;SDS011;58696;52.134;5.500;2024-02-14T07:22:43;8.75;;;6.68;;
71042;SDS011;58696;52.134;5.500;2024-02-14T07:25:12;8.32;;;7.53;;
71042;SDS011;58696;52.134;5.500;2024-02-14T07:27:39;6.70;;;6.10;;
71042;SDS011;58696;52.134;5.500;2024-02-14T07:30:06;8.48;;;7.63;;
71042;SDS011;58696;52.134;5.500;2024-02-14T07:32:35;12.63;;;8.38;;
71042;SDS011;58696;52.134;5.500;2024-02-14T07:35:05;9.77;;;8.70;;
71042;SDS011;58696;52.134;5.500;2024-02-14T07:37:35;10.47;;;8.77;;
71042;SDS011;58696;52.134;5.500;2024-02-14T07:40:05;12.00;;;9.00;;
71042;SDS011;58696;52.134;5.500;2024-02-14T07:42:32;11.52;;;8.82;;
71042;SDS011;58696;52.134;5.500;2024-02-14T07:44:58;14.35;;;8.85;;
71042;SDS011;58696;52.134;5.500;2024-02-14T07:47:25;14.40;;;7.60;;
71042;SDS011;58696;52.134;5.500;2024-02-14T07:49:52;12.30;;;8.35;;
71042;SDS011;58696;52.134;5.500;2024-02-14T07:52:19;12.50;;;8.70;;
71042;SDS011;58696;52.134;5.500;2024-02-14T07:54:50;10.48;;;7.60;;
71042;SDS011;58696;52.134;5.500;2024-02-14T07:57:18;13.82;;;8.80;;
71042;SDS011;58696;52.134;5.500;2024-02-14T07:59:44;9.55;;;8.43;;
71042;SDS011;58696;52.134;5.500;2024-02-14T08:02:13;12.02;;;9.32;;
71042;SDS011;58696;52.134;5.500;2024-02-14T08:04:43;13.07;;;8.65;;
71042;SDS011;58696;52.134;5.500;2024-02-14T08:07:12;19.92;;;9.00;;
71042;SDS011;58696;52.134;5.500;2024-02-14T08:09:41;9.52;;;7.72;;
71042;SDS011;58696;52.134;5.500;2024-02-14T08:12:10;11.20;;;8.65;;
71042;SDS011;58696;52.134;5.500;2024-02-14T08:14:39;10.02;;;7.97;;
71042;SDS011;58696;52.134;5.500;2024-02-14T08:17:07;8.70;;;7.10;;
71042;SDS011;58696;52.134;5.500;2024-02-14T08:19:36;10.40;;;8.30;;
71042;SDS011;58696;52.134;5.500;2024-02-14T08:22:05;8.35;;;6.97;;
71042;SDS011;58696;52.134;5.500;2024-02-14T08:24:33;8.68;;;7.82;;
71042;SDS011;58696;52.134;5.500;2024-02-14T08:26:59;8.52;;;7.03;;
71042;SDS011;58696;52.134;5.500;2024-02-14T08:29:26;8.82;;;7.85;;
71042;SDS011;58696;52.134;5.500;2024-02-14T08:31:55;9.77;;;7.55;;
71042;SDS011;58696;52.134;5.500;2024-02-14T08:34:25;7.82;;;7.03;;
71042;SDS011;58696;52.134;5.500;2024-02-14T08:36:54;11.50;;;8.15;;
71042;SDS011;58696;52.134;5.500;2024-02-14T08:39:21;7.70;;;7.00;;
71042;SDS011;58696;52.134;5.500;2024-02-14T08:41:50;12.02;;;8.27;;
71042;SDS011;58696;52.134;5.500;2024-02-14T08:44:17;15.20;;;9.18;;
71042;SDS011;58696;52.134;5.500;2024-02-14T08:46:44;13.90;;;8.90;;
71042;SDS011;58696;52.134;5.500;2024-02-14T08:49:14;17.52;;;10.13;;
71042;SDS011;58696;52.134;5.500;2024-02-14T08:51:44;12.85;;;8.82;;
71042;SDS011;58696;52.134;5.500;2024-02-14T08:54:12;16.05;;;9.52;;
71042;SDS011;58696;52.134;5.500;2024-02-14T08:56:40;9.95;;;8.45;;
71042;SDS011;58696;52.134;5.500;2024-02-14T08:59:08;9.45;;;8.07;;
71042;SDS011;58696;52.134;5.500;2024-02-14T09:01:37;9.48;;;8.57;;
71042;SDS011;58696;52.134;5.500;2024-02-14T09:04:06;8.77;;;7.88;;
71042;SDS011;58696;52.134;5.500;2024-02-14T09:06:33;9.32;;;7.57;;
71042;SDS011;58696;52.134;5.500;2024-02-14T09:09:00;7.20;;;6.45;;
71042;SDS011;58696;52.134;5.500;2024-02-14T09:11:29;7.93;;;7.10;;
71042;SDS011;58696;52.134;5.500;2024-02-14T09:13:58;8.10;;;7.15;;
71042;SDS011;58696;52.134;5.500;2024-02-14T09:16:30;7.57;;;6.78;;
71042;SDS011;58696;52.134;5.500;2024-02-14T09:18:57;7.20;;;6.53;;
71042;SDS011;58696;52.134;5.500;2024-02-14T09:21:27;6.95;;;6.28;;
71042;SDS011;58696;52.134;5.500;2024-02-14T09:23:56;8.07;;;7.28;;
71042;SDS011;58696;52.134;5.500;2024-02-14T09:26:24;8.75;;;7.03;;
71042;SDS011;58696;52.134;5.500;2024-02-14T09:28:54;7.25;;;6.53;;
71042;SDS011;58696;52.134;5.500;2024-02-14T09:31:21;7.20;;;6.47;;
71042;SDS011;58696;52.134;5.500;2024-02-14T09:33:47;7.68;;;6.82;;
71042;SDS011;58696;52.134;5.500;2024-02-14T09:38:45;7.30;;;6.38;;
71042;SDS011;58696;52.134;5.500;2024-02-14T09:44:03;7.30;;;6.57;;
71042;SDS011;58696;52.134;5.500;2024-02-14T09:46:29;7.47;;;6.78;;
71042;SDS011;58696;52.134;5.500;2024-02-14T09:48:57;8.27;;;7.30;;
71042;SDS011;58696;52.134;5.500;2024-02-14T09:51:27;7.93;;;7.07;;
71042;SDS011;58696;52.134;5.500;2024-02-14T09:53:58;6.45;;;5.93;;
71042;SDS011;58696;52.134;5.500;2024-02-14T09:56:29;6.90;;;6.20;;
71042;SDS011;58696;52.134;5.500;2024-02-14T09:58:59;6.85;;;6.25;;
71042;SDS011;58696;52.134;5.500;2024-02-14T10:01:31;10.27;;;6.68;;
71042;SDS011;58696;52.134;5.500;2024-02-14T10:04:02;7.38;;;6.55;;
71042;SDS011;58696;52.134;5.500;2024-02-14T10:06:31;9.85;;;7.97;;
71042;SDS011;58696;52.134;5.500;2024-02-14T10:09:00;10.20;;;8.10;;
71042;SDS011;58696;52.134;5.500;2024-02-14T10:11:33;11.20;;;9.25;;
71042;SDS011;58696;52.134;5.500;2024-02-14T10:14:00;9.43;;;8.40;;
71042;SDS011;58696;52.134;5.500;2024-02-14T10:16:30;11.07;;;8.38;;
71042;SDS011;58696;52.134;5.500;2024-02-14T10:18:58;18.58;;;8.95;;
71042;SDS011;58696;52.134;5.500;2024-02-14T10:21:26;11.45;;;8.38;;
71042;SDS011;58696;52.134;5.500;2024-02-14T10:23:55;12.07;;;8.40;;
71042;SDS011;58696;52.134;5.500;2024-02-14T10:26:24;10.15;;;7.75;;
71042;SDS011;58696;52.134;5.500;2024-02-14T10:28:51;8.73;;;7.40;;
71042;SDS011;58696;52.134;5.500;2024-02-14T10:31:18;9.75;;;7.85;;
71042;SDS011;58696;52.134;5.500;2024-02-14T10:33:47;15.60;;;8.20;;
71042;SDS011;58696;52.134;5.500;2024-02-14T10:36:17;11.73;;;7.97;;
71042;SDS011;58696;52.134;5.500;2024-02-14T10:38:46;9.75;;;7.38;;
71042;SDS011;58696;52.134;5.500;2024-02-14T10:41:16;11.02;;;7.65;;
71042;SDS011;58696;52.134;5.500;2024-02-14T10:43:45;8.02;;;7.10;;
71042;SDS011;58696;52.134;5.500;2024-02-14T10:46:24;11.95;;;7.30;;
71042;SDS011;58696;52.134;5.500;2024-02-14T10:48:58;14.40;;;7.28;;
71042;SDS011;58696;52.134;5.500;2024-02-14T10:51:32;10.27;;;6.72;;
71042;SDS011;58696;52.134;5.500;2024-02-14T10:54:03;9.32;;;7.22;;
71042;SDS011;58696;52.134;5.500;2024-02-14T10:59:11;6.75;;;5.95;;
71042;SDS011;58696;52.134;5.500;2024-02-14T11:01:41;7.28;;;6.13;;
71042;SDS011;58696;52.134;5.500;2024-02-14T11:04:09;7.65;;;5.85;;
71042;SDS011;58696;52.134;5.500;2024-02-14T11:06:46;9.02;;;7.20;;
71042;SDS011;58696;52.134;5.500;2024-02-14T11:09:13;10.75;;;6.22;;
71042;SDS011;58696;52.134;5.500;2024-02-14T11:11:42;7.13;;;6.15;;
71042;SDS011;58696;52.134;5.500;2024-02-14T11:14:10;7.68;;;5.80;;
71042;SDS011;58696;52.134;5.500;2024-02-14T11:16:44;11.82;;;6.35;;
71042;SDS011;58696;52.134;5.500;2024-02-14T11:19:12;7.18;;;6.22;;
71042;SDS011;58696;52.134;5.500;2024-02-14T11:21:44;6.85;;;5.90;;
71042;SDS011;58696;52.134;5.500;2024-02-14T11:24:15;7.72;;;5.75;;
71042;SDS011;58696;52.134;5.500;2024-02-14T11:26:46;5.80;;;5.20;;
71042;SDS011;58696;52.134;5.500;2024-02-14T11:29:16;9.40;;;5.70;;
71042;SDS011;58696;52.134;5.500;2024-02-14T11:31:57;6.53;;;5.15;;
71042;SDS011;58696;52.134;5.500;2024-02-14T11:34:25;5.85;;;5.25;;
71042;SDS011;58696;52.134;5.500;2024-02-14T11:36:52;10.88;;;5.35;;
71042;SDS011;58696;52.134;5.500;2024-02-14T11:39:19;8.70;;;5.20;;
71042;SDS011;58696;52.134;5.500;2024-02-14T11:41:49;6.93;;;5.25;;
71042;SDS011;58696;52.134;5.500;2024-02-14T11:44:16;5.30;;;4.80;;
71042;SDS011;58696;52.134;5.500;2024-02-14T11:46:44;6.88;;;5.38;;
71042;SDS011;58696;52.134;5.500;2024-02-14T11:49:11;8.48;;;5.63;;
71042;SDS011;58696;52.134;5.500;2024-02-14T11:51:40;9.52;;;5.43;;
71042;SDS011;58696;52.134;5.500;2024-02-14T11:54:07;5.53;;;4.93;;
71042;SDS011;58696;52.134;5.500;2024-02-14T11:56:37;7.35;;;5.15;;
71042;SDS011;58696;52.134;5.500;2024-02-14T11:59:07;8.50;;;5.97;;
71042;SDS011;58696;52.134;5.500;2024-02-14T12:01:37;8.05;;;5.60;;
71042;SDS011;58696;52.134;5.500;2024-02-14T12:04:09;9.57;;;5.22;;
71042;SDS011;58696;52.134;5.500;2024-02-14T12:06:36;6.10;;;5.53;;
71042;SDS011;58696;52.134;5.500;2024-02-14T12:09:08;5.40;;;4.82;;
71042;SDS011;58696;52.134;5.500;2024-02-14T12:11:39;6.80;;;5.82;;
71042;SDS011;58696;52.134;5.500;2024-02-14T12:14:11;6.28;;;4.93;;
71042;SDS011;58696;52.134;5.500;2024-02-14T12:16:38;6.55;;;5.20;;
71042;SDS011;58696;52.134;5.500;2024-02-14T12:21:37;6.18;;;4.80;;
71042;SDS011;58696;52.134;5.500;2024-02-14T12:24:07;6.00;;;4.45;;
71042;SDS011;58696;52.134;5.500;2024-02-14T12:26:35;5.70;;;4.20;;
71042;SDS011;58696;52.134;5.500;2024-02-14T12:29:04;6.30;;;4.60;;
71042;SDS011;58696;52.134;5.500;2024-02-14T12:31:32;7.65;;;4.28;;
71042;SDS011;58696;52.134;5.500;2024-02-14T12:34:00;5.00;;;4.38;;
71042;SDS011;58696;52.134;5.500;2024-02-14T12:36:31;4.88;;;4.10;;
71042;SDS011;58696;52.134;5.500;2024-02-14T12:39:01;6.60;;;3.83;;
71042;SDS011;58696;52.134;5.500;2024-02-14T12:41:32;4.45;;;3.97;;
71042;SDS011;58696;52.134;5.500;2024-02-14T12:44:02;5.20;;;4.35;;
71042;SDS011;58696;52.134;5.500;2024-02-14T12:46:28;6.22;;;3.78;;
71042;SDS011;58696;52.134;5.500;2024-02-14T12:48:55;4.18;;;3.75;;
71042;SDS011;58696;52.134;5.500;2024-02-14T12:51:27;4.05;;;3.38;;
71042;SDS011;58696;52.134;5.500;2024-02-14T12:53:59;4.75;;;4.30;;
71042;SDS011;58696;52.134;5.500;2024-02-14T12:56:28;7.60;;;3.92;;
71042;SDS011;58696;52.134;5.500;2024-02-14T12:58:56;8.83;;;3.10;;
71042;SDS011;58696;52.134;5.500;2024-02-14T13:01:23;7.53;;;3.63;;
71042;SDS011;58696;52.134;5.500;2024-02-14T13:03:50;3.53;;;3.15;;
71042;SDS011;58696;52.134;5.500;2024-02-14T13:06:19;3.70;;;3.03;;
71042;SDS011;58696;52.134;5.500;2024-02-14T13:08:49;5.00;;;3.07;;
71042;SDS011;58696;52.134;5.500;2024-02-14T13:11:18;3.60;;;2.72;;
71042;SDS011;58696;52.134;5.500;2024-02-14T13:13:45;2.80;;;2.60;;
71042;SDS011;58696;52.134;5.500;2024-02-14T13:16:14;2.88;;;2.67;;
71042;SDS011;58696;52.134;5.500;2024-02-14T13:18:41;2.60;;;2.40;;
71042;SDS011;58696;52.134;5.500;2024-02-14T13:21:08;2.35;;;2.15;;
71042;SDS011;58696;52.134;5.500;2024-02-14T13:23:34;3.47;;;2.78;;
71042;SDS011;58696;52.134;5.500;2024-02-14T13:26:01;3.15;;;2.42;;
71042;SDS011;58696;52.134;5.500;2024-02-14T13:28:30;10.50;;;2.80;;
71042;SDS011;58696;52.134;5.500;2024-02-14T13:30:57;2.67;;;2.47;;
71042;SDS011;58696;52.134;5.500;2024-02-14T13:33:25;2.97;;;2.38;;
71042;SDS011;58696;52.134;5.500;2024-02-14T13:35:52;2.42;;;2.22;;
71042;SDS011;58696;52.134;5.500;2024-02-14T13:38:19;2.33;;;2.13;;
71042;SDS011;58696;52.134;5.500;2024-02-14T13:40:46;3.45;;;2.53;;
71042;SDS011;58696;52.134;5.500;2024-02-14T13:43:13;2.25;;;2.05;;
71042;SDS011;58696;52.134;5.500;2024-02-14T13:45:44;2.58;;;2.42;;
71042;SDS011;58696;52.134;5.500;2024-02-14T13:48:16;2.78;;;2.58;;
71042;SDS011;58696;52.134;5.500;2024-02-14T13:50:45;2.67;;;2.47;;
71042;SDS011;58696;52.134;5.500;2024-02-14T13:53:12;2.65;;;2.45;;
71042;SDS011;58696;52.134;5.500;2024-02-14T13:55:39;2.72;;;2.47;;
71042;SDS011;58696;52.134;5.500;2024-02-14T13:58:08;2.60;;;2.40;;
71042;SDS011;58696;52.134;5.500;2024-02-14T14:00:43;2.55;;;2.28;;
71042;SDS011;58696;52.134;5.500;2024-02-14T14:03:11;2.85;;;2.65;;
71042;SDS011;58696;52.134;5.500;2024-02-14T14:05:38;2.60;;;2.40;;
71042;SDS011;58696;52.134;5.500;2024-02-14T14:08:08;2.83;;;2.63;;
71042;SDS011;58696;52.134;5.500;2024-02-14T14:10:37;6.00;;;2.85;;
71042;SDS011;58696;52.134;5.500;2024-02-14T14:13:08;2.80;;;2.60;;
71042;SDS011;58696;52.134;5.500;2024-02-14T14:15:34;7.32;;;3.60;;
71042;SDS011;58696;52.134;5.500;2024-02-14T14:18:03;3.40;;;3.10;;
71042;SDS011;58696;52.134;5.500;2024-02-14T14:20:38;3.92;;;3.55;;
71042;SDS011;58696;52.134;5.500;2024-02-14T14:23:05;7.68;;;4.13;;
71042;SDS011;58696;52.134;5.500;2024-02-14T14:25:32;5.85;;;3.60;;
71042;SDS011;58696;52.134;5.500;2024-02-14T14:27:59;4.47;;;4.07;;
71042;SDS011;58696;52.134;5.500;2024-02-14T14:30:29;4.15;;;3.85;;
71042;SDS011;58696;52.134;5.500;2024-02-14T14:32:57;4.55;;;4.15;;
71042;SDS011;58696;52.134;5.500;2024-02-14T14:35:23;4.85;;;4.45;;
71042;SDS011;58696;52.134;5.500;2024-02-14T14:37:52;7.32;;;4.53;;
71042;SDS011;58696;52.134;5.500;2024-02-14T14:40:23;4.68;;;4.10;;
71042;SDS011;58696;52.134;5.500;2024-02-14T14:42:53;5.53;;;4.78;;
71042;SDS011;58696;52.134;5.500;2024-02-14T14:45:20;5.90;;;4.80;;
71042;SDS011;58696;52.134;5.500;2024-02-14T14:47:46;4.85;;;4.45;;
71042;SDS011;58696;52.134;5.500;2024-02-14T14:50:14;5.05;;;4.05;;
71042;SDS011;58696;52.134;5.500;2024-02-14T14:52:44;6.28;;;4.45;;
71042;SDS011;58696;52.134;5.500;2024-02-14T14:55:11;4.57;;;4.18;;
71042;SDS011;58696;52.134;5.500;2024-02-14T14:57:41;4.90;;;4.50;;
71042;SDS011;58696;52.134;5.500;2024-02-14T15:00:10;6.97;;;4.22;;
71042;SDS011;58696;52.134;5.500;2024-02-14T15:02:41;4.13;;;3.75;;
71042;SDS011;58696;52.134;5.500;2024-02-14T15:05:13;3.85;;;3.55;;
71042;SDS011;58696;52.134;5.500;2024-02-14T15:07:42;8.68;;;3.95;;
71042;SDS011;58696;52.134;5.500;2024-02-14T15:10:09;4.80;;;3.92;;
71042;SDS011;58696;52.134;5.500;2024-02-14T15:12:36;3.90;;;3.60;;